sensor_id;sensor_type;location;lat;lon;timestamp;pressure;altitude;pressure_sealevel;temperature;humidity
72961;BME280;61141;46.204;19.774;2022-09-02T00:00:04;100396.03;;;17.68;56.02
72961;BME280;61141;46.204;19.774;2022-09-02T00:03:10;100392.03;;;17.73;56.43
72961;BME280;61141;46.204;19.774;2022-09-02T00:06:16;100393.69;;;17.67;54.61
72961;BME280;61141;46.204;19.774;2022-09-02T00:09:21;100378.59;;;17.68;54.73
72961;BME280;61141;46.204;19.774;2022-09-02T00:12:25;100390.59;;;17.61;55.55
72961;BME280;61141;46.204;19.774;2022-09-02T00:15:28;100380.22;;;17.65;55.03
72961;BME280;61141;46.204;19.774;2022-09-02T00:18:31;100387.25;;;17.73;56.19
72961;BME280;61141;46.204;19.774;2022-09-02T00:21:35;100380.16;;;17.72;53.38
72961;BME280;61141;46.204;19.774;2022-09-02T00:24:38;100369.25;;;17.58;53.38
72961;BME280;61141;46.204;19.774;2022-09-02T00:27:41;100379.84;;;17.67;54.41
72961;BME280;61141;46.204;19.774;2022-09-02T00:30:45;100378.75;;;17.57;53.59
72961;BME280;61141;46.204;19.774;2022-09-02T00:33:47;100383.75;;;17.69;52.86
72961;BME280;61141;46.204;19.774;2022-09-02T00:36:53;100383.00;;;17.65;54.52
72961;BME280;61141;46.204;19.774;2022-09-02T00:39:56;100363.72;;;17.58;53.47
72961;BME280;61141;46.204;19.774;2022-09-02T00:42:59;100388.53;;;17.65;53.52
72961;BME280;61141;46.204;19.774;2022-09-02T00:46:02;100368.22;;;17.45;53.32
72961;BME280;61141;46.204;19.774;2022-09-02T00:49:20;100378.03;;;17.49;53.28
72961;BME280;61141;46.204;19.774;2022-09-02T00:52:33;100381.97;;;17.55;53.26
72961;BME280;61141;46.204;19.774;2022-09-02T00:55:43;100383.16;;;17.51;53.53
72961;BME280;61141;46.204;19.774;2022-09-02T00:58:49;100362.75;;;17.38;53.48
72961;BME280;61141;46.204;19.774;2022-09-02T01:01:53;100381.31;;;17.41;53.74
72961;BME280;61141;46.204;19.774;2022-09-02T01:05:00;100370.16;;;17.48;54.41
72961;BME280;61141;46.204;19.774;2022-09-02T01:08:05;100379.63;;;17.50;54.15
72961;BME280;61141;46.204;19.774;2022-09-02T01:11:08;100375.81;;;17.37;53.68
72961;BME280;61141;46.204;19.774;2022-09-02T01:14:14;100374.59;;;17.42;54.12
72961;BME280;61141;46.204;19.774;2022-09-02T01:17:17;100373.94;;;17.31;53.23
72961;BME280;61141;46.204;19.774;2022-09-02T01:20:25;100377.44;;;17.35;56.06
72961;BME280;61141;46.204;19.774;2022-09-02T01:23:29;100368.84;;;17.26;54.54
72961;BME280;61141;46.204;19.774;2022-09-02T01:26:36;100375.91;;;17.30;53.65
72961;BME280;61141;46.204;19.774;2022-09-02T01:29:39;100375.28;;;17.16;54.07
72961;BME280;61141;46.204;19.774;2022-09-02T01:32:42;100382.56;;;17.36;55.96
72961;BME280;61141;46.204;19.774;2022-09-02T01:35:45;100380.75;;;17.23;53.86
72961;BME280;61141;46.204;19.774;2022-09-02T01:38:49;100374.47;;;17.19;54.25
72961;BME280;61141;46.204;19.774;2022-09-02T01:41:52;100370.38;;;17.30;53.86
72961;BME280;61141;46.204;19.774;2022-09-02T01:44:55;100373.97;;;17.27;54.22
72961;BME280;61141;46.204;19.774;2022-09-02T01:47:58;100373.16;;;17.27;54.54
72961;BME280;61141;46.204;19.774;2022-09-02T01:51:02;100357.12;;;17.15;55.02
72961;BME280;61141;46.204;19.774;2022-09-02T01:54:06;100377.66;;;17.17;54.97
72961;BME280;61141;46.204;19.774;2022-09-02T01:57:10;100372.16;;;17.14;53.98
72961;BME280;61141;46.204;19.774;2022-09-02T02:00:14;100354.88;;;17.02;53.99
72961;BME280;61141;46.204;19.774;2022-09-02T02:03:19;100371.22;;;17.24;54.94
72961;BME280;61141;46.204;19.774;2022-09-02T02:06:22;100359.50;;;17.13;54.41
72961;BME280;61141;46.204;19.774;2022-09-02T02:09:26;100362.41;;;16.98;54.72
72961;BME280;61141;46.204;19.774;2022-09-02T02:12:30;100367.62;;;16.93;55.65
72961;BME280;61141;46.204;19.774;2022-09-02T02:15:37;100371.25;;;16.86;55.49
72961;BME280;61141;46.204;19.774;2022-09-02T02:18:41;100352.75;;;16.80;55.77
72961;BME280;61141;46.204;19.774;2022-09-02T02:21:43;100370.00;;;16.91;56.57
72961;BME280;61141;46.204;19.774;2022-09-02T02:24:46;100363.28;;;16.92;56.16
72961;BME280;61141;46.204;19.774;2022-09-02T02:27:49;100369.69;;;16.85;58.50
72961;BME280;61141;46.204;19.774;2022-09-02T02:30:55;100371.41;;;16.72;57.96
72961;BME280;61141;46.204;19.774;2022-09-02T02:33:58;100369.34;;;16.80;58.10
72961;BME280;61141;46.204;19.774;2022-09-02T02:37:01;100369.47;;;16.66;56.92
72961;BME280;61141;46.204;19.774;2022-09-02T02:40:05;100364.38;;;16.61;57.22
72961;BME280;61141;46.204;19.774;2022-09-02T02:43:09;100364.75;;;16.63;57.63
72961;BME280;61141;46.204;19.774;2022-09-02T02:46:12;100364.81;;;16.59;57.06
72961;BME280;61141;46.204;19.774;2022-09-02T02:49:15;100362.37;;;16.65;58.03
72961;BME280;61141;46.204;19.774;2022-09-02T02:52:18;100368.03;;;16.47;58.87
72961;BME280;61141;46.204;19.774;2022-09-02T02:55:23;100368.00;;;16.51;59.34
72961;BME280;61141;46.204;19.774;2022-09-02T02:58:26;100367.72;;;16.38;60.51
72961;BME280;61141;46.204;19.774;2022-09-02T03:01:31;100368.84;;;16.44;61.25
72961;BME280;61141;46.204;19.774;2022-09-02T03:04:34;100370.62;;;16.20;62.15
72961;BME280;61141;46.204;19.774;2022-09-02T03:07:38;100365.09;;;16.20;62.15
72961;BME280;61141;46.204;19.774;2022-09-02T03:10:42;100348.97;;;16.12;64.02
72961;BME280;61141;46.204;19.774;2022-09-02T03:13:46;100375.34;;;16.23;64.01
72961;BME280;61141;46.204;19.774;2022-09-02T03:16:48;100369.84;;;16.20;65.24
72961;BME280;61141;46.204;19.774;2022-09-02T03:19:52;100371.53;;;16.03;65.62
72961;BME280;61141;46.204;19.774;2022-09-02T03:22:57;100378.34;;;15.88;65.83
72961;BME280;61141;46.204;19.774;2022-09-02T03:26:01;100374.78;;;15.91;67.57
72961;BME280;61141;46.204;19.774;2022-09-02T03:29:04;100383.13;;;15.80;67.62
72961;BME280;61141;46.204;19.774;2022-09-02T03:32:07;100390.63;;;15.83;68.35
72961;BME280;61141;46.204;19.774;2022-09-02T03:35:14;100382.03;;;15.64;69.25
72961;BME280;61141;46.204;19.774;2022-09-02T03:38:19;100388.72;;;15.70;68.24
72961;BME280;61141;46.204;19.774;2022-09-02T03:41:22;100390.31;;;15.60;72.98
72961;BME280;61141;46.204;19.774;2022-09-02T03:44:25;100391.97;;;15.54;72.21
72961;BME280;61141;46.204;19.774;2022-09-02T03:47:27;100392.75;;;15.51;72.47
72961;BME280;61141;46.204;19.774;2022-09-02T03:50:35;100391.97;;;15.44;73.10
72961;BME280;61141;46.204;19.774;2022-09-02T03:53:39;100393.56;;;15.34;74.18
72961;BME280;61141;46.204;19.774;2022-09-02T03:56:43;100393.25;;;15.21;74.90
72961;BME280;61141;46.204;19.774;2022-09-02T03:59:47;100384.16;;;15.17;75.36
72961;BME280;61141;46.204;19.774;2022-09-02T04:02:51;100383.78;;;15.08;76.16
72961;BME280;61141;46.204;19.774;2022-09-02T04:05:57;100384.59;;;15.12;76.14
72961;BME280;61141;46.204;19.774;2022-09-02T04:09:00;100388.94;;;15.10;76.93
72961;BME280;61141;46.204;19.774;2022-09-02T04:12:05;100399.22;;;14.92;75.92
72961;BME280;61141;46.204;19.774;2022-09-02T04:15:10;100397.63;;;15.05;77.10
72961;BME280;61141;46.204;19.774;2022-09-02T04:18:16;100403.91;;;15.05;77.37
72961;BME280;61141;46.204;19.774;2022-09-02T04:21:19;100396.41;;;15.02;77.85
72961;BME280;61141;46.204;19.774;2022-09-02T04:24:22;100402.78;;;14.82;76.67
72961;BME280;61141;46.204;19.774;2022-09-02T04:27:26;100412.22;;;15.02;77.70
72961;BME280;61141;46.204;19.774;2022-09-02T04:30:29;100409.44;;;14.95;77.62
72961;BME280;61141;46.204;19.774;2022-09-02T04:33:33;100412.22;;;14.98;77.11
72961;BME280;61141;46.204;19.774;2022-09-02T04:36:36;100415.38;;;14.90;78.14
72961;BME280;61141;46.204;19.774;2022-09-02T04:39:40;100409.84;;;15.00;78.69
72961;BME280;61141;46.204;19.774;2022-09-02T04:42:43;100396.50;;;14.74;77.72
72961;BME280;61141;46.204;19.774;2022-09-02T04:45:48;100414.59;;;14.64;78.89
72961;BME280;61141;46.204;19.774;2022-09-02T04:48:51;100416.19;;;14.51;79.36
72961;BME280;61141;46.204;19.774;2022-09-02T04:51:54;100413.81;;;14.57;78.64
72961;BME280;61141;46.204;19.774;2022-09-02T04:54:57;100417.38;;;14.72;80.17
72961;BME280;61141;46.204;19.774;2022-09-02T04:58:00;100420.13;;;14.72;78.80
72961;BME280;61141;46.204;19.774;2022-09-02T05:01:09;100424.44;;;14.87;79.21
72961;BME280;61141;46.204;19.774;2022-09-02T05:04:12;100420.91;;;14.76;79.01
72961;BME280;61141;46.204;19.774;2022-09-02T05:07:17;100407.91;;;14.73;79.53
72961;BME280;61141;46.204;19.774;2022-09-02T05:10:20;100415.41;;;14.83;79.04
72961;BME280;61141;46.204;19.774;2022-09-02T05:13:24;100427.22;;;14.65;78.28
72961;BME280;61141;46.204;19.774;2022-09-02T05:16:31;100419.34;;;14.71;77.78
72961;BME280;61141;46.204;19.774;2022-09-02T05:19:35;100424.81;;;14.89;78.51
72961;BME280;61141;46.204;19.774;2022-09-02T05:22:38;100430.34;;;14.99;77.86
72961;BME280;61141;46.204;19.774;2022-09-02T05:25:43;100420.13;;;14.86;77.63
72961;BME280;61141;46.204;19.774;2022-09-02T05:28:46;100408.28;;;14.82;77.78
72961;BME280;61141;46.204;19.774;2022-09-02T05:31:49;100436.66;;;14.82;78.59
72961;BME280;61141;46.204;19.774;2022-09-02T05:34:52;100429.56;;;14.81;77.60
72961;BME280;61141;46.204;19.774;2022-09-02T05:37:56;100411.47;;;14.59;78.87
72961;BME280;61141;46.204;19.774;2022-09-02T05:41:11;100424.03;;;14.78;78.57
72961;BME280;61141;46.204;19.774;2022-09-02T05:44:16;100428.00;;;14.77;78.35
72961;BME280;61141;46.204;19.774;2022-09-02T05:47:19;100432.31;;;14.78;78.84
72961;BME280;61141;46.204;19.774;2022-09-02T05:50:23;100426.81;;;14.78;78.83
72961;BME280;61141;46.204;19.774;2022-09-02T05:53:33;100428.78;;;14.42;78.12
72961;BME280;61141;46.204;19.774;2022-09-02T05:56:42;100429.56;;;14.32;79.02
72961;BME280;61141;46.204;19.774;2022-09-02T05:59:46;100423.28;;;14.38;79.53
72961;BME280;61141;46.204;19.774;2022-09-02T06:02:51;100422.50;;;14.38;80.00
72961;BME280;61141;46.204;19.774;2022-09-02T06:05:56;100421.69;;;14.48;79.77
72961;BME280;61141;46.204;19.774;2022-09-02T06:09:06;100416.97;;;14.48;79.31
72961;BME280;61141;46.204;19.774;2022-09-02T06:12:12;100425.59;;;14.29;80.43
72961;BME280;61141;46.204;19.774;2022-09-02T06:15:16;100433.50;;;14.55;80.10
72961;BME280;61141;46.204;19.774;2022-09-02T06:18:20;100423.69;;;14.58;79.96
72961;BME280;61141;46.204;19.774;2022-09-02T06:21:25;100415.00;;;14.42;79.98
72961;BME280;61141;46.204;19.774;2022-09-02T06:24:31;100420.13;;;14.50;79.60
72961;BME280;61141;46.204;19.774;2022-09-02T06:27:37;100406.75;;;14.52;80.23
72961;BME280;61141;46.204;19.774;2022-09-02T06:30:42;100425.97;;;14.17;80.46
72961;BME280;61141;46.204;19.774;2022-09-02T06:33:46;100424.81;;;14.11;82.39
72961;BME280;61141;46.204;19.774;2022-09-02T06:36:50;100438.16;;;14.12;81.92
72961;BME280;61141;46.204;19.774;2022-09-02T06:39:55;100429.56;;;14.35;81.93
72961;BME280;61141;46.204;19.774;2022-09-02T06:42:59;100432.63;;;13.91;83.20
72961;BME280;61141;46.204;19.774;2022-09-02T06:46:02;100435.06;;;14.39;81.25
72961;BME280;61141;46.204;19.774;2022-09-02T06:49:08;100432.25;;;14.07;80.82
72961;BME280;61141;46.204;19.774;2022-09-02T06:52:12;100430.72;;;14.27;82.28
72961;BME280;61141;46.204;19.774;2022-09-02T06:55:16;100428.69;;;13.96;81.52
72961;BME280;61141;46.204;19.774;2022-09-02T06:58:19;100433.00;;;14.00;82.12
72961;BME280;61141;46.204;19.774;2022-09-02T07:01:25;100431.09;;;14.08;82.63
72961;BME280;61141;46.204;19.774;2022-09-02T07:04:28;100416.91;;;14.09;83.25
72961;BME280;61141;46.204;19.774;2022-09-02T07:07:52;100436.59;;;14.15;84.34
72961;BME280;61141;46.204;19.774;2022-09-02T07:10:56;100439.75;;;14.21;82.93
72961;BME280;61141;46.204;19.774;2022-09-02T07:13:59;100440.53;;;14.14;83.17
72961;BME280;61141;46.204;19.774;2022-09-02T07:17:03;100438.19;;;14.27;81.93
72961;BME280;61141;46.204;19.774;2022-09-02T07:20:08;100439.34;;;14.11;82.91
72961;BME280;61141;46.204;19.774;2022-09-02T07:23:11;100418.41;;;13.82;82.99
72961;BME280;61141;46.204;19.774;2022-09-02T07:26:15;100444.91;;;14.22;82.98
72961;BME280;61141;46.204;19.774;2022-09-02T07:29:19;100438.94;;;14.02;82.51
72961;BME280;61141;46.204;19.774;2022-09-02T07:32:22;100443.72;;;14.27;82.18
72961;BME280;61141;46.204;19.774;2022-09-02T07:35:25;100437.75;;;14.00;82.80
72961;BME280;61141;46.204;19.774;2022-09-02T07:38:31;100445.97;;;13.86;84.25
72961;BME280;61141;46.204;19.774;2022-09-02T07:41:35;100452.34;;;14.11;83.78
72961;BME280;61141;46.204;19.774;2022-09-02T07:44:39;100447.63;;;14.26;82.31
72961;BME280;61141;46.204;19.774;2022-09-02T07:47:43;100451.63;;;14.32;81.94
72961;BME280;61141;46.204;19.774;2022-09-02T07:50:48;100462.66;;;14.46;82.20
72961;BME280;61141;46.204;19.774;2022-09-02T07:53:51;100454.75;;;14.34;82.32
72961;BME280;61141;46.204;19.774;2022-09-02T07:56:55;100460.69;;;14.46;81.74
72961;BME280;61141;46.204;19.774;2022-09-02T07:59:58;100454.78;;;14.51;81.79
72961;BME280;61141;46.204;19.774;2022-09-02T08:03:02;100456.69;;;14.16;82.68
72961;BME280;61141;46.204;19.774;2022-09-02T08:06:07;100465.78;;;14.30;82.10
72961;BME280;61141;46.204;19.774;2022-09-02T08:09:10;100476.66;;;13.88;85.10
72961;BME280;61141;46.204;19.774;2022-09-02T08:12:16;100467.37;;;14.49;83.80
72961;BME280;61141;46.204;19.774;2022-09-02T08:15:24;100465.03;;;14.33;83.91
72961;BME280;61141;46.204;19.774;2022-09-02T08:18:31;100468.59;;;14.69;82.49
72961;BME280;61141;46.204;19.774;2022-09-02T08:21:35;100474.87;;;14.41;81.02
72961;BME280;61141;46.204;19.774;2022-09-02T08:24:38;100468.19;;;14.60;83.26
72961;BME280;61141;46.204;19.774;2022-09-02T08:27:41;100466.59;;;14.91;82.53
72961;BME280;61141;46.204;19.774;2022-09-02T08:30:44;100468.97;;;14.46;83.53
72961;BME280;61141;46.204;19.774;2022-09-02T08:33:47;100467.78;;;14.90;81.69
72961;BME280;61141;46.204;19.774;2022-09-02T08:36:57;100464.25;;;14.86;82.16
72961;BME280;61141;46.204;19.774;2022-09-02T08:40:02;100468.97;;;14.53;83.41
72961;BME280;61141;46.204;19.774;2022-09-02T08:43:33;100467.37;;;14.66;83.39
72961;BME280;61141;46.204;19.774;2022-09-02T08:46:41;100467.00;;;14.93;83.09
72961;BME280;61141;46.204;19.774;2022-09-02T08:49:48;100466.19;;;15.03;82.05
72961;BME280;61141;46.204;19.774;2022-09-02T08:56:07;100464.22;;;14.89;82.95
72961;BME280;61141;46.204;19.774;2022-09-02T08:59:12;100465.03;;;14.65;83.03
72961;BME280;61141;46.204;19.774;2022-09-02T09:05:46;100470.91;;;15.06;82.44
72961;BME280;61141;46.204;19.774;2022-09-02T09:22:47;100464.63;;;14.95;82.42
72961;BME280;61141;46.204;19.774;2022-09-02T09:25:55;100465.38;;;15.27;83.16
72961;BME280;61141;46.204;19.774;2022-09-02T09:29:03;100473.69;;;14.85;81.27
72961;BME280;61141;46.204;19.774;2022-09-02T09:32:19;100472.84;;;15.37;81.98
72961;BME280;61141;46.204;19.774;2022-09-02T09:35:27;100477.50;;;15.65;81.54
72961;BME280;61141;46.204;19.774;2022-09-02T09:38:32;100481.91;;;15.48;81.12
72961;BME280;61141;46.204;19.774;2022-09-02T09:41:37;100468.91;;;15.31;82.14
72961;BME280;61141;46.204;19.774;2022-09-02T09:44:45;100476.03;;;15.14;83.00
72961;BME280;61141;46.204;19.774;2022-09-02T09:48:18;100479.59;;;15.15;84.30
72961;BME280;61141;46.204;19.774;2022-09-02T09:51:25;100481.53;;;15.11;84.27
72961;BME280;61141;46.204;19.774;2022-09-02T09:54:28;100475.94;;;15.60;83.81
72961;BME280;61141;46.204;19.774;2022-09-02T09:57:31;100472.03;;;15.44;82.76
72961;BME280;61141;46.204;19.774;2022-09-02T10:00:39;100478.34;;;15.51;83.05
72961;BME280;61141;46.204;19.774;2022-09-02T10:06:51;100482.66;;;15.56;82.88
72961;BME280;61141;46.204;19.774;2022-09-02T10:10:08;100480.34;;;15.19;84.66
72961;BME280;61141;46.204;19.774;2022-09-02T10:13:23;100475.62;;;15.26;84.59
72961;BME280;61141;46.204;19.774;2022-09-02T10:23:39;100492.16;;;15.51;83.12
72961;BME280;61141;46.204;19.774;2022-09-02T10:26:53;100492.50;;;15.64;82.55
72961;BME280;61141;46.204;19.774;2022-09-02T10:33:31;100501.19;;;15.62;82.62
72961;BME280;61141;46.204;19.774;2022-09-02T10:46:08;100506.75;;;15.38;82.28
72961;BME280;61141;46.204;19.774;2022-09-02T10:56:24;100490.16;;;15.55;84.48
72961;BME280;61141;46.204;19.774;2022-09-02T11:06:24;100494.47;;;15.67;84.68
72961;BME280;61141;46.204;19.774;2022-09-02T11:13:04;100506.75;;;15.48;83.25
72961;BME280;61141;46.204;19.774;2022-09-02T11:16:18;100501.19;;;15.62;83.19
72961;BME280;61141;46.204;19.774;2022-09-02T11:19:34;100501.53;;;15.75;82.94
72961;BME280;61141;46.204;19.774;2022-09-02T11:23:04;100491.66;;;15.77;83.82
72961;BME280;61141;46.204;19.774;2022-09-02T11:36:38;100490.44;;;15.85;84.66
72961;BME280;61141;46.204;19.774;2022-09-02T11:39:50;100487.34;;;15.76;83.99
72961;BME280;61141;46.204;19.774;2022-09-02T11:53:37;100494.78;;;15.83;83.33
72961;BME280;61141;46.204;19.774;2022-09-02T11:56:45;100499.06;;;16.02;83.00
72961;BME280;61141;46.204;19.774;2022-09-02T12:06:26;100494.03;;;16.55;82.37
72961;BME280;61141;46.204;19.774;2022-09-02T12:09:45;100487.63;;;16.00;82.54
72961;BME280;61141;46.204;19.774;2022-09-02T12:19:24;100486.78;;;16.10;82.93
72961;BME280;61141;46.204;19.774;2022-09-02T12:22:34;100488.47;;;15.93;83.69
72961;BME280;61141;46.204;19.774;2022-09-02T12:25:46;100474.87;;;16.20;82.79
72961;BME280;61141;46.204;19.774;2022-09-02T12:28:51;100481.06;;;16.41;81.50
72961;BME280;61141;46.204;19.774;2022-09-02T12:31:54;100478.88;;;16.15;83.22
72961;BME280;61141;46.204;19.774;2022-09-02T12:35:08;100476.25;;;16.56;82.69
72961;BME280;61141;46.204;19.774;2022-09-02T12:41:20;100475.88;;;16.98;80.87
72961;BME280;61141;46.204;19.774;2022-09-02T12:50:59;100469.81;;;16.70;80.52
72961;BME280;61141;46.204;19.774;2022-09-02T12:54:03;100470.56;;;16.77;79.77
72961;BME280;61141;46.204;19.774;2022-09-02T12:57:08;100467.53;;;16.61;80.77
72961;BME280;61141;46.204;19.774;2022-09-02T13:00:15;100469.25;;;17.30;78.40
72961;BME280;61141;46.204;19.774;2022-09-02T13:07:12;100473.66;;;17.24;78.29
72961;BME280;61141;46.204;19.774;2022-09-02T13:10:36;100464.75;;;17.43;77.92
72961;BME280;61141;46.204;19.774;2022-09-02T13:14:00;100453.94;;;17.59;77.03
72961;BME280;61141;46.204;19.774;2022-09-02T13:30:17;100458.13;;;17.37;77.15
72961;BME280;61141;46.204;19.774;2022-09-02T13:33:21;100448.91;;;17.47;76.53
72961;BME280;61141;46.204;19.774;2022-09-02T13:36:50;100429.34;;;17.65;76.25
72961;BME280;61141;46.204;19.774;2022-09-02T13:39:52;100436.91;;;17.60;76.16
72961;BME280;61141;46.204;19.774;2022-09-02T13:42:57;100434.34;;;18.03;75.86
72961;BME280;61141;46.204;19.774;2022-09-02T13:46:01;100438.06;;;18.20;75.53
72961;BME280;61141;46.204;19.774;2022-09-02T13:49:04;100442.53;;;18.41;74.70
72961;BME280;61141;46.204;19.774;2022-09-02T13:52:13;100444.72;;;17.99;74.51
72961;BME280;61141;46.204;19.774;2022-09-02T13:55:18;100445.09;;;17.68;75.19
72961;BME280;61141;46.204;19.774;2022-09-02T14:01:37;100443.72;;;18.13;73.75
72961;BME280;61141;46.204;19.774;2022-09-02T14:04:43;100437.44;;;18.09;73.70
72961;BME280;61141;46.204;19.774;2022-09-02T14:07:52;100436.03;;;18.51;72.16
72961;BME280;61141;46.204;19.774;2022-09-02T14:10:56;100445.47;;;18.80;71.91
72961;BME280;61141;46.204;19.774;2022-09-02T14:13:59;100439.06;;;18.60;72.21
72961;BME280;61141;46.204;19.774;2022-09-02T14:17:24;100438.22;;;18.63;72.47
72961;BME280;61141;46.204;19.774;2022-09-02T14:20:27;100438.47;;;18.45;73.79
72961;BME280;61141;46.204;19.774;2022-09-02T14:23:31;100433.09;;;18.61;72.14
72961;BME280;61141;46.204;19.774;2022-09-02T14:26:41;100444.31;;;18.54;72.94
72961;BME280;61141;46.204;19.774;2022-09-02T14:29:46;100440.44;;;18.22;73.89
72961;BME280;61141;46.204;19.774;2022-09-02T14:36:35;100438.53;;;18.68;72.98
72961;BME280;61141;46.204;19.774;2022-09-02T14:39:51;100446.03;;;18.71;73.31
72961;BME280;61141;46.204;19.774;2022-09-02T14:42:54;100443.03;;;18.32;74.72
72961;BME280;61141;46.204;19.774;2022-09-02T14:46:06;100453.41;;;18.28;74.53
72961;BME280;61141;46.204;19.774;2022-09-02T14:49:22;100430.13;;;18.22;75.29
72961;BME280;61141;46.204;19.774;2022-09-02T14:52:30;100440.06;;;18.19;75.89
72961;BME280;61141;46.204;19.774;2022-09-02T14:58:48;100447.16;;;18.20;75.19
72961;BME280;61141;46.204;19.774;2022-09-02T15:01:54;100450.34;;;18.23;75.49
72961;BME280;61141;46.204;19.774;2022-09-02T15:05:00;100450.28;;;18.53;74.92
72961;BME280;61141;46.204;19.774;2022-09-02T15:08:03;100443.31;;;18.41;75.22
72961;BME280;61141;46.204;19.774;2022-09-02T15:11:06;100451.13;;;18.73;74.56
72961;BME280;61141;46.204;19.774;2022-09-02T15:14:09;100452.91;;;18.63;74.17
72961;BME280;61141;46.204;19.774;2022-09-02T15:17:14;100443.84;;;18.33;74.56
72961;BME280;61141;46.204;19.774;2022-09-02T15:20:18;100444.94;;;18.39;74.72
72961;BME280;61141;46.204;19.774;2022-09-02T15:23:23;100449.66;;;18.42;74.17
72961;BME280;61141;46.204;19.774;2022-09-02T15:26:28;100452.94;;;18.60;73.49
72961;BME280;61141;46.204;19.774;2022-09-02T15:29:31;100452.78;;;18.44;73.34
72961;BME280;61141;46.204;19.774;2022-09-02T15:32:35;100452.19;;;18.56;73.57
72961;BME280;61141;46.204;19.774;2022-09-02T15:35:38;100458.34;;;18.17;74.11
72961;BME280;61141;46.204;19.774;2022-09-02T15:38:41;100449.09;;;18.24;73.72
72961;BME280;61141;46.204;19.774;2022-09-02T15:41:44;100460.97;;;17.97;74.06
72961;BME280;61141;46.204;19.774;2022-09-02T15:44:47;100452.38;;;17.88;75.19
72961;BME280;61141;46.204;19.774;2022-09-02T15:47:50;100460.69;;;17.88;75.06
72961;BME280;61141;46.204;19.774;2022-09-02T15:50:53;100460.97;;;17.97;75.06
72961;BME280;61141;46.204;19.774;2022-09-02T15:54:04;100454.00;;;17.48;76.38
72961;BME280;61141;46.204;19.774;2022-09-02T15:57:07;100458.63;;;17.62;76.03
72961;BME280;61141;46.204;19.774;2022-09-02T16:00:13;100462.81;;;17.77;75.76
72961;BME280;61141;46.204;19.774;2022-09-02T16:03:18;100461.84;;;17.60;76.21
72961;BME280;61141;46.204;19.774;2022-09-02T16:06:20;100456.31;;;17.57;76.65
72961;BME280;61141;46.204;19.774;2022-09-02T16:09:23;100462.97;;;17.63;76.42
72961;BME280;61141;46.204;19.774;2022-09-02T16:12:26;100463.25;;;17.76;76.24
72961;BME280;61141;46.204;19.774;2022-09-02T16:15:30;100463.44;;;17.58;76.82
72961;BME280;61141;46.204;19.774;2022-09-02T16:18:36;100465.97;;;17.42;77.51
72961;BME280;61141;46.204;19.774;2022-09-02T16:21:40;100460.31;;;17.52;77.31
72961;BME280;61141;46.204;19.774;2022-09-02T16:24:43;100453.56;;;17.57;76.97
72961;BME280;61141;46.204;19.774;2022-09-02T16:27:45;100455.50;;;17.60;77.07
72961;BME280;61141;46.204;19.774;2022-09-02T16:30:54;100463.22;;;17.42;78.11
72961;BME280;61141;46.204;19.774;2022-09-02T16:34:03;100463.44;;;17.58;77.58
72961;BME280;61141;46.204;19.774;2022-09-02T16:37:06;100471.41;;;17.56;77.82
72961;BME280;61141;46.204;19.774;2022-09-02T16:40:09;100463.56;;;17.44;78.44
72961;BME280;61141;46.204;19.774;2022-09-02T16:43:12;100461.03;;;17.23;79.51
72961;BME280;61141;46.204;19.774;2022-09-02T16:46:16;100465.44;;;17.17;80.11
72961;BME280;61141;46.204;19.774;2022-09-02T16:49:20;100468.53;;;17.26;79.76
72961;BME280;61141;46.204;19.774;2022-09-02T16:52:23;100470.66;;;17.08;80.73
72961;BME280;61141;46.204;19.774;2022-09-02T16:55:26;100467.13;;;17.07;80.94
72961;BME280;61141;46.204;19.774;2022-09-02T16:58:29;100470.28;;;17.09;80.59
72961;BME280;61141;46.204;19.774;2022-09-02T17:01:32;100473.00;;;17.13;80.65
72961;BME280;61141;46.204;19.774;2022-09-02T17:04:36;100483.22;;;16.75;82.62
72961;BME280;61141;46.204;19.774;2022-09-02T17:07:39;100485.56;;;16.76;82.10
72961;BME280;61141;46.204;19.774;2022-09-02T17:10:42;100491.84;;;16.84;81.69
72961;BME280;61141;46.204;19.774;2022-09-02T17:13:50;100492.25;;;16.82;81.63
72961;BME280;61141;46.204;19.774;2022-09-02T17:16:54;100471.59;;;16.42;82.94
72961;BME280;61141;46.204;19.774;2022-09-02T17:19:57;100486.06;;;16.68;82.50
72961;BME280;61141;46.204;19.774;2022-09-02T17:23:00;100484.13;;;16.61;82.83
72961;BME280;61141;46.204;19.774;2022-09-02T17:26:03;100486.00;;;16.71;82.19
72961;BME280;61141;46.204;19.774;2022-09-02T17:29:08;100492.78;;;16.63;82.27
72961;BME280;61141;46.204;19.774;2022-09-02T17:32:32;100495.69;;;16.42;83.24
72961;BME280;61141;46.204;19.774;2022-09-02T17:35:35;100503.91;;;16.49;83.17
72961;BME280;61141;46.204;19.774;2022-09-02T17:38:38;100500.84;;;16.40;83.30
72961;BME280;61141;46.204;19.774;2022-09-02T17:41:42;100505.91;;;16.49;83.39
72961;BME280;61141;46.204;19.774;2022-09-02T17:44:58;100511.69;;;16.75;82.01
72961;BME280;61141;46.204;19.774;2022-09-02T17:48:02;100505.78;;;16.73;81.84
72961;BME280;61141;46.204;19.774;2022-09-02T17:51:25;100505.34;;;16.78;81.34
72961;BME280;61141;46.204;19.774;2022-09-02T17:54:28;100514.00;;;16.80;81.46
72961;BME280;61141;46.204;19.774;2022-09-02T17:58:05;100504.31;;;16.51;82.60
72961;BME280;61141;46.204;19.774;2022-09-02T18:01:18;100509.84;;;16.51;82.74
72961;BME280;61141;46.204;19.774;2022-09-02T18:04:42;100512.66;;;16.40;83.03
72961;BME280;61141;46.204;19.774;2022-09-02T18:08:11;100511.91;;;16.40;83.26
72961;BME280;61141;46.204;19.774;2022-09-02T18:11:18;100523.72;;;16.40;83.00